This is the latest recevied weather packets stored in our database for station/object R1CBW-13. If no packets are shown the sender has not sent any weather packets the latest 10 day(s).
| Time | Temp. | Humidity | Pressure | Rain* | Wind** | Luminosity | Snow |
|---|---|---|---|---|---|---|---|
| 1777613255 | 10° C | 63% | 1019.9 hPa | 0 mm | - | - | - |
| 1777613195 | 9.44° C | 64% | 1019.9 hPa | 0 mm | - | - | - |
| 1777613135 | 9.44° C | 65% | 1019.9 hPa | 0 mm | - | - | - |
| 1777613075 | 8.89° C | 65% | 1019.9 hPa | 0 mm | - | - | - |
| 1777613015 | 8.89° C | 65% | 1019.9 hPa | 0 mm | - | - | - |
| 1777612955 | 8.89° C | 65% | 1019.9 hPa | 0 mm | - | - | - |
| 1777612895 | 8.89° C | 65% | 1019.9 hPa | 0 mm | - | - | - |
| 1777612835 | 9.44° C | 64% | 1019.9 hPa | 0 mm | - | - | - |
| 1777612775 | 9.44° C | 64% | 1019.9 hPa | 0 mm | - | - | - |
| 1777612715 | 8.89° C | 65% | 1019.9 hPa | 0 mm | - | - | - |
| 1777612655 | 8.89° C | 66% | 1019.9 hPa | 0 mm | - | - | - |
| 1777612595 | 9.44° C | 65% | 1019.9 hPa | 0 mm | - | - | - |
| 1777612535 | 9.44° C | 65% | 1019.9 hPa | 0 mm | - | - | - |
| 1777612475 | 8.89° C | 66% | 1020 hPa | 0 mm | - | - | - |
| 1777612415 | 8.89° C | 66% | 1019.9 hPa | 0 mm | - | - | - |
| 1777612355 | 8.33° C | 68% | 1019.9 hPa | 0 mm | - | - | - |
| 1777612295 | 8.33° C | 67% | 1020 hPa | 0 mm | - | - | - |
| 1777612235 | 8.33° C | 68% | 1020.1 hPa | 0 mm | - | - | - |
| 1777612175 | 8.33° C | 68% | 1020.1 hPa | 0 mm | - | - | - |
| 1777612115 | 8.33° C | 68% | 1020 hPa | 0 mm | - | - | - |
| 1777612055 | 8.89° C | 67% | 1020 hPa | 0 mm | - | - | - |
| 1777611995 | 8.33° C | 70% | 1019.9 hPa | 0 mm | - | - | - |
| 1777611935 | 7.78° C | 70% | 1019.9 hPa | 0 mm | - | - | - |
| 1777611875 | 7.78° C | 69% | 1019.9 hPa | 0 mm | - | - | - |
| 1777611815 | 8.89° C | 67% | 1020 hPa | 0 mm | - | - | - |
* Rain latest hour (hover to see other rain measurements)
** Current wind speed in m/s (hover to see current wind gust speed)